createdAt,value
2022-12-25T00:01:48.081Z,14.40
2022-12-25T00:11:49.489Z,17.73
2022-12-25T00:21:50.881Z,26.40
2022-12-25T00:31:52.338Z,19.10
2022-12-25T00:42:12.411Z,17.77
2022-12-25T00:52:13.869Z,14.70
2022-12-25T01:02:24.388Z,18.37
2022-12-25T01:12:25.966Z,13.40
2022-12-25T01:22:27.377Z,16.97
2022-12-25T01:32:28.761Z,12.50
2022-12-25T01:42:30.213Z,11.43
2022-12-25T01:52:32.269Z,11.80
2022-12-25T02:02:34.578Z,11.60
2022-12-25T02:12:37.336Z,11.67
2022-12-25T02:22:57.603Z,9.75
2022-12-25T02:33:20.438Z,11.40
2022-12-25T02:44:20.085Z,9.17
2022-12-25T02:54:48.940Z,12.13
2022-12-25T03:05:11.731Z,10.93
2022-12-25T03:15:32.620Z,9.40
2022-12-25T03:25:52.777Z,10.25
2022-12-25T03:36:17.830Z,8.82
2022-12-25T03:46:39.160Z,7.27
2022-12-25T03:57:01.156Z,8.27
2022-12-25T04:07:21.059Z,8.45
2022-12-25T04:17:40.637Z,10.17
2022-12-25T04:28:00.409Z,9.70
2022-12-25T04:38:02.004Z,8.27
2022-12-25T04:48:03.535Z,6.80
2022-12-25T04:58:04.996Z,7.40
2022-12-25T05:08:06.433Z,6.82
2022-12-25T05:18:07.952Z,8.30
2022-12-25T05:28:09.377Z,9.97
2022-12-25T05:38:10.735Z,9.77
2022-12-25T05:48:12.112Z,8.43
2022-12-25T05:58:13.885Z,6.97
2022-12-25T06:08:15.255Z,5.73
2022-12-25T06:18:16.603Z,9.00
2022-12-25T06:28:18.997Z,6.20
2022-12-25T06:38:20.349Z,10.90
2022-12-25T06:48:21.695Z,7.28
2022-12-25T06:58:23.063Z,7.75
2022-12-25T07:08:24.460Z,9.27
2022-12-25T07:18:26.792Z,8.77
2022-12-25T07:28:29.736Z,11.48
2022-12-25T07:38:31.671Z,6.67
2022-12-25T07:48:33.559Z,10.53
2022-12-25T07:58:34.977Z,7.32
2022-12-25T08:08:38.328Z,8.93
2022-12-25T08:18:39.913Z,6.50
2022-12-25T08:28:41.375Z,5.70
2022-12-25T08:38:43.053Z,6.38
2022-12-25T08:48:46.222Z,5.57
2022-12-25T08:58:47.592Z,5.50
2022-12-25T09:08:49.951Z,7.88
2022-12-25T09:18:51.879Z,7.37
2022-12-25T09:28:53.281Z,8.97
2022-12-25T09:38:54.693Z,10.23
2022-12-25T09:49:06.169Z,7.07
2022-12-25T09:59:18.437Z,9.90
2022-12-25T10:09:45.817Z,9.90
2022-12-25T10:19:49.875Z,10.63
2022-12-25T10:29:54.745Z,10.87
2022-12-25T10:39:57.251Z,11.23
2022-12-25T10:50:00.710Z,9.35
2022-12-25T11:00:05.527Z,10.50
2022-12-25T11:10:32.585Z,10.67
2022-12-25T11:20:34.134Z,8.50
2022-12-25T11:30:37.558Z,10.20
2022-12-25T11:40:46.950Z,9.37
2022-12-25T11:50:53.054Z,8.27
2022-12-25T12:00:57.227Z,9.77
2022-12-25T12:11:21.430Z,9.43
2022-12-25T12:21:30.866Z,10.23
2022-12-25T12:31:45.325Z,8.80
2022-12-25T12:41:48.911Z,10.37
2022-12-25T12:51:50.783Z,11.10
2022-12-25T13:02:34.225Z,8.02
2022-12-25T13:12:36.813Z,10.30
2022-12-25T13:22:38.274Z,11.50
2022-12-25T13:32:40.689Z,12.20
2022-12-25T13:42:47.223Z,9.75
2022-12-25T13:52:49.142Z,14.60
2022-12-25T14:02:51.510Z,10.33
2022-12-25T14:12:56.176Z,10.52
2022-12-25T14:23:00.653Z,11.57
2022-12-25T14:33:02.627Z,11.73
2022-12-25T14:43:18.595Z,14.52
2022-12-25T14:53:23.061Z,13.40
2022-12-25T15:03:29.461Z,16.03
2022-12-25T15:13:31.970Z,16.02
2022-12-25T15:23:33.485Z,15.52
2022-12-25T15:33:38.006Z,18.20
2022-12-25T15:43:43.624Z,22.50
2022-12-25T15:53:44.994Z,17.80
2022-12-25T16:03:46.756Z,21.07
2022-12-25T16:13:48.160Z,17.17
2022-12-25T16:23:49.799Z,15.95
2022-12-25T16:33:52.842Z,18.90
2022-12-25T16:43:54.503Z,19.77
2022-12-25T16:53:55.928Z,21.80
2022-12-25T17:04:01.372Z,19.63
2022-12-25T17:14:05.168Z,20.93
2022-12-25T17:24:07.038Z,19.93
2022-12-25T17:34:10.650Z,21.42
2022-12-25T17:44:12.088Z,19.83
2022-12-25T17:54:13.744Z,23.40
2022-12-25T18:04:15.148Z,19.42
2022-12-25T18:14:16.998Z,24.47
2022-12-25T18:24:18.352Z,21.63
2022-12-25T18:34:19.756Z,19.15
2022-12-25T18:44:21.195Z,19.02
2022-12-25T18:54:22.549Z,20.23
2022-12-25T19:04:24.036Z,19.27
2022-12-25T19:14:28.129Z,20.60
2022-12-25T19:24:29.459Z,21.97
2022-12-25T19:34:30.823Z,19.73
2022-12-25T19:44:32.182Z,20.58
2022-12-25T19:54:33.746Z,17.17
2022-12-25T20:04:35.105Z,20.40
2022-12-25T20:14:36.656Z,19.73
2022-12-25T20:24:38.064Z,19.15
2022-12-25T20:34:39.438Z,19.97
2022-12-25T20:44:40.804Z,19.40
2022-12-25T20:54:42.362Z,17.75
2022-12-25T21:04:45.723Z,14.70
2022-12-25T21:14:50.591Z,18.27
2022-12-25T21:24:53.214Z,16.77
2022-12-25T21:34:54.576Z,16.30
2022-12-25T21:44:55.995Z,15.90
2022-12-25T21:54:57.407Z,15.55
2022-12-25T22:04:58.845Z,15.43
2022-12-25T22:15:06.183Z,14.97
2022-12-25T22:25:09.062Z,13.63
2022-12-25T22:35:12.466Z,11.95
2022-12-25T22:45:14.199Z,14.70
2022-12-25T22:55:17.705Z,14.80
2022-12-25T23:05:19.076Z,17.30
2022-12-25T23:15:20.505Z,17.20
2022-12-25T23:25:40.377Z,17.23
2022-12-25T23:35:41.735Z,26.67
2022-12-25T23:45:43.140Z,19.80
2022-12-25T23:55:46.568Z,14.63
